sensor_id;sensor_type;location;lat;lon;timestamp;pressure;altitude;pressure_sealevel;temperature;humidity
23164;BME280;31429;42.674;23.350;2023-05-01T00:00:16;94747.41;;;10.64;100.00
23164;BME280;31429;42.674;23.350;2023-05-01T00:01:17;94743.38;;;10.59;100.00
23164;BME280;31429;42.674;23.350;2023-05-01T00:02:18;94740.81;;;10.59;100.00
23164;BME280;31429;42.674;23.350;2023-05-01T00:03:18;94736.38;;;10.64;100.00
23164;BME280;31429;42.674;23.350;2023-05-01T00:04:19;94743.09;;;10.66;100.00
23164;BME280;31429;42.674;23.350;2023-05-01T00:05:21;94746.00;;;10.79;100.00
23164;BME280;31429;42.674;23.350;2023-05-01T00:06:22;94738.28;;;10.80;100.00
23164;BME280;31429;42.674;23.350;2023-05-01T00:07:23;94742.50;;;10.81;100.00
23164;BME280;31429;42.674;23.350;2023-05-01T00:08:30;94750.03;;;10.84;100.00
23164;BME280;31429;42.674;23.350;2023-05-01T00:09:31;94743.03;;;10.89;100.00
23164;BME280;31429;42.674;23.350;2023-05-01T00:10:34;94751.84;;;10.82;100.00
23164;BME280;31429;42.674;23.350;2023-05-01T00:11:36;94754.03;;;10.70;100.00
23164;BME280;31429;42.674;23.350;2023-05-01T00:12:36;94749.69;;;10.72;100.00
23164;BME280;31429;42.674;23.350;2023-05-01T00:13:37;94748.63;;;10.77;100.00
23164;BME280;31429;42.674;23.350;2023-05-01T00:14:38;94748.84;;;10.71;100.00
23164;BME280;31429;42.674;23.350;2023-05-01T00:15:40;94749.41;;;10.79;100.00
23164;BME280;31429;42.674;23.350;2023-05-01T00:16:41;94751.06;;;10.80;100.00
23164;BME280;31429;42.674;23.350;2023-05-01T00:17:42;94749.94;;;10.87;100.00
23164;BME280;31429;42.674;23.350;2023-05-01T00:18:42;94746.38;;;10.91;100.00
23164;BME280;31429;42.674;23.350;2023-05-01T00:19:43;94746.53;;;10.87;100.00
23164;BME280;31429;42.674;23.350;2023-05-01T00:20:44;94755.03;;;10.87;100.00
23164;BME280;31429;42.674;23.350;2023-05-01T00:21:45;94752.09;;;10.98;100.00
23164;BME280;31429;42.674;23.350;2023-05-01T00:22:47;94752.25;;;10.93;100.00
23164;BME280;31429;42.674;23.350;2023-05-01T00:23:48;94753.56;;;11.04;100.00
23164;BME280;31429;42.674;23.350;2023-05-01T00:24:49;94751.53;;;10.90;100.00
23164;BME280;31429;42.674;23.350;2023-05-01T00:25:49;94754.47;;;10.81;100.00
23164;BME280;31429;42.674;23.350;2023-05-01T00:26:51;94750.34;;;10.77;100.00
23164;BME280;31429;42.674;23.350;2023-05-01T00:27:52;94747.06;;;10.73;100.00
23164;BME280;31429;42.674;23.350;2023-05-01T00:28:53;94755.03;;;10.66;100.00
23164;BME280;31429;42.674;23.350;2023-05-01T00:29:53;94752.91;;;10.55;100.00
23164;BME280;31429;42.674;23.350;2023-05-01T00:30:54;94750.50;;;10.51;100.00
23164;BME280;31429;42.674;23.350;2023-05-01T00:31:55;94751.53;;;10.47;100.00
23164;BME280;31429;42.674;23.350;2023-05-01T00:32:56;94754.19;;;10.44;100.00
23164;BME280;31429;42.674;23.350;2023-05-01T00:33:56;94750.78;;;10.43;100.00
23164;BME280;31429;42.674;23.350;2023-05-01T00:34:57;94754.00;;;10.48;100.00
23164;BME280;31429;42.674;23.350;2023-05-01T00:35:58;94755.28;;;10.60;100.00
23164;BME280;31429;42.674;23.350;2023-05-01T00:36:59;94746.50;;;10.67;100.00
23164;BME280;31429;42.674;23.350;2023-05-01T00:37:59;94755.56;;;10.52;100.00
23164;BME280;31429;42.674;23.350;2023-05-01T00:39:00;94755.69;;;10.49;100.00
23164;BME280;31429;42.674;23.350;2023-05-01T00:40:01;94763.50;;;10.45;100.00
23164;BME280;31429;42.674;23.350;2023-05-01T00:41:02;94760.84;;;10.48;100.00
23164;BME280;31429;42.674;23.350;2023-05-01T00:42:04;94759.97;;;10.49;100.00
23164;BME280;31429;42.674;23.350;2023-05-01T00:43:05;94765.59;;;10.57;100.00
23164;BME280;31429;42.674;23.350;2023-05-01T00:44:05;94763.81;;;10.59;100.00
23164;BME280;31429;42.674;23.350;2023-05-01T00:45:07;94758.59;;;10.62;100.00
23164;BME280;31429;42.674;23.350;2023-05-01T00:46:08;94759.28;;;10.67;100.00
23164;BME280;31429;42.674;23.350;2023-05-01T00:47:09;94768.66;;;10.66;100.00
23164;BME280;31429;42.674;23.350;2023-05-01T00:48:10;94770.38;;;10.66;100.00
23164;BME280;31429;42.674;23.350;2023-05-01T00:49:10;94764.78;;;10.56;100.00
23164;BME280;31429;42.674;23.350;2023-05-01T00:50:12;94768.47;;;10.49;100.00
23164;BME280;31429;42.674;23.350;2023-05-01T00:51:13;94772.47;;;10.33;100.00
23164;BME280;31429;42.674;23.350;2023-05-01T00:52:14;94780.38;;;10.27;100.00
23164;BME280;31429;42.674;23.350;2023-05-01T00:53:15;94775.38;;;10.24;100.00
23164;BME280;31429;42.674;23.350;2023-05-01T00:54:16;94776.34;;;10.20;100.00
23164;BME280;31429;42.674;23.350;2023-05-01T00:55:17;94777.28;;;10.17;100.00
23164;BME280;31429;42.674;23.350;2023-05-01T00:56:18;94773.88;;;10.18;100.00
23164;BME280;31429;42.674;23.350;2023-05-01T00:57:20;94766.97;;;10.20;100.00
23164;BME280;31429;42.674;23.350;2023-05-01T00:58:21;94770.47;;;10.18;100.00
23164;BME280;31429;42.674;23.350;2023-05-01T00:59:22;94772.19;;;10.17;100.00
23164;BME280;31429;42.674;23.350;2023-05-01T01:00:23;94762.47;;;10.27;100.00
23164;BME280;31429;42.674;23.350;2023-05-01T01:01:24;94763.19;;;10.30;100.00
23164;BME280;31429;42.674;23.350;2023-05-01T01:02:24;94769.19;;;10.29;100.00
23164;BME280;31429;42.674;23.350;2023-05-01T01:03:26;94768.53;;;10.24;100.00
23164;BME280;31429;42.674;23.350;2023-05-01T01:04:27;94772.28;;;10.14;100.00
23164;BME280;31429;42.674;23.350;2023-05-01T01:05:31;94766.91;;;10.22;100.00
23164;BME280;31429;42.674;23.350;2023-05-01T01:06:42;94766.78;;;10.25;100.00
23164;BME280;31429;42.674;23.350;2023-05-01T01:07:50;94771.78;;;10.28;100.00
23164;BME280;31429;42.674;23.350;2023-05-01T01:09:01;94763.06;;;10.33;100.00
23164;BME280;31429;42.674;23.350;2023-05-01T01:10:15;94771.03;;;10.26;100.00
23164;BME280;31429;42.674;23.350;2023-05-01T01:11:21;94762.69;;;10.21;100.00
23164;BME280;31429;42.674;23.350;2023-05-01T01:12:28;94764.19;;;10.26;100.00
23164;BME280;31429;42.674;23.350;2023-05-01T01:13:37;94768.53;;;10.24;100.00
23164;BME280;31429;42.674;23.350;2023-05-01T01:14:46;94778.28;;;10.13;100.00
23164;BME280;31429;42.674;23.350;2023-05-01T01:15:54;94779.38;;;10.06;100.00
23164;BME280;31429;42.674;23.350;2023-05-01T01:17:01;94780.97;;;10.09;100.00
23164;BME280;31429;42.674;23.350;2023-05-01T01:18:07;94779.25;;;10.09;100.00
23164;BME280;31429;42.674;23.350;2023-05-01T01:19:26;94787.41;;;10.20;100.00
23164;BME280;31429;42.674;23.350;2023-05-01T01:20:41;94790.50;;;10.28;100.00
23164;BME280;31429;42.674;23.350;2023-05-01T01:21:45;94780.25;;;10.30;100.00
23164;BME280;31429;42.674;23.350;2023-05-01T01:22:52;94788.91;;;10.26;100.00
23164;BME280;31429;42.674;23.350;2023-05-01T01:24:45;94787.31;;;10.23;100.00
23164;BME280;31429;42.674;23.350;2023-05-01T01:26:02;94789.22;;;10.17;100.00
23164;BME280;31429;42.674;23.350;2023-05-01T01:27:29;94793.19;;;10.25;100.00
23164;BME280;31429;42.674;23.350;2023-05-01T01:30:33;94789.69;;;10.03;100.00
23164;BME280;31429;42.674;23.350;2023-05-01T01:31:41;94795.00;;;9.97;100.00
23164;BME280;31429;42.674;23.350;2023-05-01T01:32:59;94793.91;;;9.79;100.00
23164;BME280;31429;42.674;23.350;2023-05-01T01:34:14;94791.53;;;9.75;100.00
23164;BME280;31429;42.674;23.350;2023-05-01T01:35:19;94787.47;;;9.69;100.00
23164;BME280;31429;42.674;23.350;2023-05-01T01:36:33;94793.81;;;9.58;100.00
23164;BME280;31429;42.674;23.350;2023-05-01T01:37:40;94787.88;;;9.57;100.00
23164;BME280;31429;42.674;23.350;2023-05-01T01:38:45;94789.59;;;9.57;100.00
23164;BME280;31429;42.674;23.350;2023-05-01T01:39:51;94797.13;;;9.60;100.00
23164;BME280;31429;42.674;23.350;2023-05-01T01:40:56;94792.56;;;9.69;100.00
23164;BME280;31429;42.674;23.350;2023-05-01T01:41:58;94787.00;;;9.83;100.00
23164;BME280;31429;42.674;23.350;2023-05-01T01:43:03;94792.06;;;9.85;100.00
23164;BME280;31429;42.674;23.350;2023-05-01T01:44:08;94789.72;;;9.78;100.00
23164;BME280;31429;42.674;23.350;2023-05-01T01:45:15;94788.25;;;9.71;100.00
23164;BME280;31429;42.674;23.350;2023-05-01T01:46:19;94786.34;;;9.52;100.00
23164;BME280;31429;42.674;23.350;2023-05-01T01:47:25;94784.19;;;9.40;100.00
23164;BME280;31429;42.674;23.350;2023-05-01T01:48:32;94788.63;;;9.35;100.00
23164;BME280;31429;42.674;23.350;2023-05-01T01:49:38;94784.66;;;9.26;100.00
23164;BME280;31429;42.674;23.350;2023-05-01T01:50:41;94787.31;;;9.23;100.00
23164;BME280;31429;42.674;23.350;2023-05-01T01:51:44;94781.88;;;9.34;100.00
23164;BME280;31429;42.674;23.350;2023-05-01T01:52:49;94781.91;;;9.58;100.00
23164;BME280;31429;42.674;23.350;2023-05-01T01:53:53;94785.19;;;9.62;100.00
23164;BME280;31429;42.674;23.350;2023-05-01T01:54:59;94775.94;;;9.58;100.00
23164;BME280;31429;42.674;23.350;2023-05-01T01:56:06;94781.44;;;9.46;100.00
23164;BME280;31429;42.674;23.350;2023-05-01T01:57:10;94775.78;;;9.38;100.00
23164;BME280;31429;42.674;23.350;2023-05-01T01:58:12;94775.69;;;9.41;100.00
23164;BME280;31429;42.674;23.350;2023-05-01T01:59:15;94774.75;;;9.43;100.00
23164;BME280;31429;42.674;23.350;2023-05-01T02:00:17;94770.75;;;9.36;100.00
23164;BME280;31429;42.674;23.350;2023-05-01T02:01:18;94776.81;;;9.32;100.00
23164;BME280;31429;42.674;23.350;2023-05-01T02:02:20;94773.63;;;9.25;100.00
23164;BME280;31429;42.674;23.350;2023-05-01T02:03:23;94776.50;;;9.16;100.00
23164;BME280;31429;42.674;23.350;2023-05-01T02:04:24;94769.81;;;9.12;100.00
23164;BME280;31429;42.674;23.350;2023-05-01T02:05:28;94771.59;;;9.09;100.00
23164;BME280;31429;42.674;23.350;2023-05-01T02:06:32;94770.88;;;9.05;100.00
23164;BME280;31429;42.674;23.350;2023-05-01T02:07:36;94785.34;;;9.05;100.00
23164;BME280;31429;42.674;23.350;2023-05-01T02:08:40;94773.81;;;9.19;100.00
23164;BME280;31429;42.674;23.350;2023-05-01T02:09:42;94773.41;;;9.32;100.00
23164;BME280;31429;42.674;23.350;2023-05-01T02:10:46;94772.38;;;9.37;100.00
23164;BME280;31429;42.674;23.350;2023-05-01T02:11:48;94776.66;;;9.37;100.00
23164;BME280;31429;42.674;23.350;2023-05-01T02:12:50;94777.69;;;9.31;100.00
23164;BME280;31429;42.674;23.350;2023-05-01T02:13:53;94778.81;;;9.22;100.00
23164;BME280;31429;42.674;23.350;2023-05-01T02:14:56;94778.81;;;9.22;100.00
23164;BME280;31429;42.674;23.350;2023-05-01T02:15:58;94778.91;;;9.19;100.00
23164;BME280;31429;42.674;23.350;2023-05-01T02:17:01;94778.97;;;9.18;100.00
23164;BME280;31429;42.674;23.350;2023-05-01T02:18:03;94774.31;;;9.31;100.00
23164;BME280;31429;42.674;23.350;2023-05-01T02:19:04;94784.06;;;9.44;100.00
23164;BME280;31429;42.674;23.350;2023-05-01T02:20:06;94777.94;;;9.50;100.00
23164;BME280;31429;42.674;23.350;2023-05-01T02:21:10;94784.47;;;9.32;100.00
23164;BME280;31429;42.674;23.350;2023-05-01T02:22:12;94778.31;;;9.11;100.00
23164;BME280;31429;42.674;23.350;2023-05-01T02:23:14;94780.28;;;9.03;100.00
23164;BME280;31429;42.674;23.350;2023-05-01T02:24:15;94774.06;;;9.12;100.00
23164;BME280;31429;42.674;23.350;2023-05-01T02:25:17;94771.41;;;9.15;100.00
23164;BME280;31429;42.674;23.350;2023-05-01T02:26:20;94767.91;;;9.19;100.00
23164;BME280;31429;42.674;23.350;2023-05-01T02:27:29;94776.06;;;9.29;100.00
23164;BME280;31429;42.674;23.350;2023-05-01T02:28:32;94778.69;;;9.27;100.00
23164;BME280;31429;42.674;23.350;2023-05-01T02:29:34;94772.66;;;9.30;100.00
23164;BME280;31429;42.674;23.350;2023-05-01T02:30:34;94775.88;;;9.35;100.00
23164;BME280;31429;42.674;23.350;2023-05-01T02:31:35;94777.38;;;9.40;100.00
23164;BME280;31429;42.674;23.350;2023-05-01T02:32:36;94774.53;;;9.49;100.00
23164;BME280;31429;42.674;23.350;2023-05-01T02:33:37;94774.31;;;9.31;100.00
23164;BME280;31429;42.674;23.350;2023-05-01T02:34:37;94778.19;;;9.16;100.00
23164;BME280;31429;42.674;23.350;2023-05-01T02:35:38;94778.66;;;9.01;100.00
23164;BME280;31429;42.674;23.350;2023-05-01T02:36:41;94783.47;;;8.84;100.00
23164;BME280;31429;42.674;23.350;2023-05-01T02:37:42;94787.91;;;8.77;100.00
23164;BME280;31429;42.674;23.350;2023-05-01T02:38:43;94787.09;;;8.77;100.00
23164;BME280;31429;42.674;23.350;2023-05-01T02:39:46;94787.34;;;8.68;100.00
23164;BME280;31429;42.674;23.350;2023-05-01T02:40:50;94783.38;;;8.59;100.00
23164;BME280;31429;42.674;23.350;2023-05-01T02:41:51;94778.41;;;8.54;100.00
23164;BME280;31429;42.674;23.350;2023-05-01T02:42:55;94776.00;;;8.50;100.00
23164;BME280;31429;42.674;23.350;2023-05-01T02:44:00;94771.91;;;8.44;100.00
23164;BME280;31429;42.674;23.350;2023-05-01T02:45:06;94776.09;;;8.47;100.00
23164;BME280;31429;42.674;23.350;2023-05-01T02:46:09;94778.63;;;8.47;100.00
23164;BME280;31429;42.674;23.350;2023-05-01T02:47:15;94778.72;;;8.44;100.00
23164;BME280;31429;42.674;23.350;2023-05-01T02:48:20;94772.09;;;8.38;100.00
23164;BME280;31429;42.674;23.350;2023-05-01T02:49:23;94772.16;;;8.37;100.00
23164;BME280;31429;42.674;23.350;2023-05-01T02:50:25;94770.38;;;8.39;100.00
23164;BME280;31429;42.674;23.350;2023-05-01T02:51:27;94775.63;;;8.34;100.00
23164;BME280;31429;42.674;23.350;2023-05-01T02:52:30;94771.41;;;8.32;100.00
23164;BME280;31429;42.674;23.350;2023-05-01T02:53:31;94768.94;;;8.30;100.00
23164;BME280;31429;42.674;23.350;2023-05-01T02:54:33;94770.41;;;8.37;100.00
23164;BME280;31429;42.674;23.350;2023-05-01T02:55:34;94772.34;;;8.58;100.00
23164;BME280;31429;42.674;23.350;2023-05-01T02:56:35;94772.59;;;8.77;100.00
23164;BME280;31429;42.674;23.350;2023-05-01T02:57:35;94780.06;;;8.83;100.00
23164;BME280;31429;42.674;23.350;2023-05-01T02:58:37;94779.34;;;8.80;100.00
23164;BME280;31429;42.674;23.350;2023-05-01T02:59:37;94786.06;;;8.82;100.00
23164;BME280;31429;42.674;23.350;2023-05-01T03:00:39;94778.75;;;8.98;100.00
23164;BME280;31429;42.674;23.350;2023-05-01T03:01:40;94774.78;;;8.89;100.00
23164;BME280;31429;42.674;23.350;2023-05-01T03:02:41;94778.53;;;8.78;100.00
23164;BME280;31429;42.674;23.350;2023-05-01T03:03:42;94784.38;;;8.81;100.00
23164;BME280;31429;42.674;23.350;2023-05-01T03:04:42;94781.19;;;8.75;100.00
23164;BME280;31429;42.674;23.350;2023-05-01T03:05:43;94786.09;;;8.81;100.00
23164;BME280;31429;42.674;23.350;2023-05-01T03:06:44;94791.88;;;8.86;100.00
23164;BME280;31429;42.674;23.350;2023-05-01T03:07:46;94790.34;;;8.80;100.00
23164;BME280;31429;42.674;23.350;2023-05-01T03:08:47;94783.97;;;8.67;100.00
23164;BME280;31429;42.674;23.350;2023-05-01T03:09:48;94795.00;;;8.68;100.00
23164;BME280;31429;42.674;23.350;2023-05-01T03:10:48;94800.50;;;8.54;100.00
23164;BME280;31429;42.674;23.350;2023-05-01T03:11:49;94789.81;;;8.43;100.00
23164;BME280;31429;42.674;23.350;2023-05-01T03:12:50;94792.13;;;8.50;100.00
23164;BME280;31429;42.674;23.350;2023-05-01T03:13:50;94792.78;;;8.57;100.00
23164;BME280;31429;42.674;23.350;2023-05-01T03:14:51;94794.22;;;8.65;100.00
23164;BME280;31429;42.674;23.350;2023-05-01T03:15:52;94793.00;;;8.49;100.00
23164;BME280;31429;42.674;23.350;2023-05-01T03:16:52;94787.34;;;8.40;100.00
23164;BME280;31429;42.674;23.350;2023-05-01T03:17:53;94790.91;;;8.34;100.00
23164;BME280;31429;42.674;23.350;2023-05-01T03:18:53;94793.31;;;8.39;100.00
23164;BME280;31429;42.674;23.350;2023-05-01T03:19:55;94787.94;;;8.48;100.00
23164;BME280;31429;42.674;23.350;2023-05-01T03:20:56;94789.34;;;8.58;100.00
23164;BME280;31429;42.674;23.350;2023-05-01T03:21:56;94792.38;;;8.71;100.00
23164;BME280;31429;42.674;23.350;2023-05-01T03:22:58;94788.91;;;8.72;100.00
23164;BME280;31429;42.674;23.350;2023-05-01T03:23:59;94796.28;;;8.81;100.00
23164;BME280;31429;42.674;23.350;2023-05-01T03:25:00;94797.97;;;8.82;100.00
23164;BME280;31429;42.674;23.350;2023-05-01T03:26:00;94792.69;;;8.88;100.00
23164;BME280;31429;42.674;23.350;2023-05-01T03:27:01;94792.91;;;8.80;100.00
23164;BME280;31429;42.674;23.350;2023-05-01T03:28:02;94791.75;;;8.62;100.00
23164;BME280;31429;42.674;23.350;2023-05-01T03:29:03;94793.91;;;8.47;100.00
23164;BME280;31429;42.674;23.350;2023-05-01T03:30:05;94795.94;;;8.36;100.00
23164;BME280;31429;42.674;23.350;2023-05-01T03:31:05;94803.72;;;8.31;100.00
23164;BME280;31429;42.674;23.350;2023-05-01T03:32:06;94798.88;;;8.51;100.00
23164;BME280;31429;42.674;23.350;2023-05-01T03:33:07;94802.78;;;8.63;100.00
23164;BME280;31429;42.674;23.350;2023-05-01T03:34:07;94800.22;;;8.63;100.00
23164;BME280;31429;42.674;23.350;2023-05-01T03:35:08;94798.25;;;8.73;100.00
23164;BME280;31429;42.674;23.350;2023-05-01T03:36:09;94812.59;;;8.75;100.00
23164;BME280;31429;42.674;23.350;2023-05-01T03:37:13;94802.66;;;8.68;100.00
23164;BME280;31429;42.674;23.350;2023-05-01T03:38:15;94808.50;;;8.71;100.00
23164;BME280;31429;42.674;23.350;2023-05-01T03:39:16;94811.66;;;8.79;100.00
23164;BME280;31429;42.674;23.350;2023-05-01T03:40:17;94808.94;;;8.84;100.00
23164;BME280;31429;42.674;23.350;2023-05-01T03:41:18;94811.25;;;8.91;100.00
23164;BME280;31429;42.674;23.350;2023-05-01T03:42:18;94809.72;;;8.86;100.00
23164;BME280;31429;42.674;23.350;2023-05-01T03:43:19;94813.03;;;8.89;100.00
23164;BME280;31429;42.674;23.350;2023-05-01T03:44:20;94811.78;;;8.75;100.00
23164;BME280;31429;42.674;23.350;2023-05-01T03:45:21;94813.69;;;8.68;100.00
23164;BME280;31429;42.674;23.350;2023-05-01T03:46:21;94811.56;;;8.53;100.00
23164;BME280;31429;42.674;23.350;2023-05-01T03:47:23;94814.81;;;8.29;100.00
23164;BME280;31429;42.674;23.350;2023-05-01T03:48:24;94807.34;;;8.23;100.00
23164;BME280;31429;42.674;23.350;2023-05-01T03:49:24;94816.84;;;8.16;100.00
23164;BME280;31429;42.674;23.350;2023-05-01T03:50:25;94806.97;;;8.05;100.00
23164;BME280;31429;42.674;23.350;2023-05-01T03:51:26;94812.06;;;8.04;100.00
23164;BME280;31429;42.674;23.350;2023-05-01T03:52:26;94816.13;;;8.11;100.00
23164;BME280;31429;42.674;23.350;2023-05-01T03:53:29;94814.25;;;8.18;100.00
23164;BME280;31429;42.674;23.350;2023-05-01T03:54:29;94812.69;;;8.12;100.00
23164;BME280;31429;42.674;23.350;2023-05-01T03:55:30;94818.84;;;8.05;100.00
23164;BME280;31429;42.674;23.350;2023-05-01T03:56:31;94821.25;;;8.09;100.00
23164;BME280;31429;42.674;23.350;2023-05-01T03:57:34;94821.00;;;8.19;100.00
23164;BME280;31429;42.674;23.350;2023-05-01T03:58:36;94826.03;;;8.22;100.00
23164;BME280;31429;42.674;23.350;2023-05-01T03:59:37;94819.16;;;8.24;100.00
23164;BME280;31429;42.674;23.350;2023-05-01T04:00:38;94823.19;;;8.32;100.00
23164;BME280;31429;42.674;23.350;2023-05-01T04:01:38;94831.75;;;8.31;100.00
23164;BME280;31429;42.674;23.350;2023-05-01T04:02:39;94829.28;;;8.27;100.00
23164;BME280;31429;42.674;23.350;2023-05-01T04:03:40;94831.03;;;8.25;100.00
23164;BME280;31429;42.674;23.350;2023-05-01T04:04:41;94825.97;;;8.23;100.00
23164;BME280;31429;42.674;23.350;2023-05-01T04:05:41;94830.09;;;8.29;100.00
23164;BME280;31429;42.674;23.350;2023-05-01T04:06:42;94822.44;;;8.29;100.00
23164;BME280;31429;42.674;23.350;2023-05-01T04:07:43;94828.28;;;8.34;100.00
23164;BME280;31429;42.674;23.350;2023-05-01T04:08:45;94822.28;;;8.35;100.00
23164;BME280;31429;42.674;23.350;2023-05-01T04:09:46;94826.56;;;8.34;100.00
23164;BME280;31429;42.674;23.350;2023-05-01T04:10:47;94832.22;;;8.44;100.00
23164;BME280;31429;42.674;23.350;2023-05-01T04:11:48;94830.38;;;8.49;100.00
23164;BME280;31429;42.674;23.350;2023-05-01T04:12:48;94827.53;;;8.59;100.00
23164;BME280;31429;42.674;23.350;2023-05-01T04:13:49;94825.31;;;8.77;100.00
23164;BME280;31429;42.674;23.350;2023-05-01T04:14:50;94824.00;;;8.91;100.00
23164;BME280;31429;42.674;23.350;2023-05-01T04:15:50;94830.00;;;8.90;100.00
23164;BME280;31429;42.674;23.350;2023-05-01T04:16:51;94825.75;;;9.45;100.00
23164;BME280;31429;42.674;23.350;2023-05-01T04:17:52;94826.31;;;9.27;100.00
23164;BME280;31429;42.674;23.350;2023-05-01T04:18:55;94823.50;;;9.08;100.00
23164;BME280;31429;42.674;23.350;2023-05-01T04:19:55;94825.44;;;9.00;100.00
23164;BME280;31429;42.674;23.350;2023-05-01T04:20:56;94828.88;;;8.99;100.00
23164;BME280;31429;42.674;23.350;2023-05-01T04:21:57;94826.44;;;8.96;100.00
23164;BME280;31429;42.674;23.350;2023-05-01T04:22:58;94829.50;;;9.05;100.00
23164;BME280;31429;42.674;23.350;2023-05-01T04:24:00;94836.38;;;9.03;100.00
23164;BME280;31429;42.674;23.350;2023-05-01T04:25:00;94834.69;;;9.04;100.00
23164;BME280;31429;42.674;23.350;2023-05-01T04:26:01;94828.53;;;9.11;100.00
23164;BME280;31429;42.674;23.350;2023-05-01T04:27:01;94831.59;;;9.20;100.00
23164;BME280;31429;42.674;23.350;2023-05-01T04:28:02;94818.13;;;9.43;100.00
23164;BME280;31429;42.674;23.350;2023-05-01T04:29:03;94818.56;;;9.56;100.00
23164;BME280;31429;42.674;23.350;2023-05-01T04:30:04;94825.97;;;9.63;100.00
23164;BME280;31429;42.674;23.350;2023-05-01T04:31:05;94825.97;;;9.63;100.00
23164;BME280;31429;42.674;23.350;2023-05-01T04:32:06;94829.09;;;9.71;100.00
23164;BME280;31429;42.674;23.350;2023-05-01T04:33:07;94826.53;;;9.71;100.00
23164;BME280;31429;42.674;23.350;2023-05-01T04:34:10;94835.88;;;9.72;100.00
23164;BME280;31429;42.674;23.350;2023-05-01T04:35:11;94829.84;;;9.73;100.00
23164;BME280;31429;42.674;23.350;2023-05-01T04:36:12;94829.06;;;9.73;100.00
23164;BME280;31429;42.674;23.350;2023-05-01T04:37:12;94825.94;;;9.90;100.00
23164;BME280;31429;42.674;23.350;2023-05-01T04:38:13;94824.09;;;9.93;100.00
23164;BME280;31429;42.674;23.350;2023-05-01T04:39:15;94830.41;;;9.83;100.00
23164;BME280;31429;42.674;23.350;2023-05-01T04:40:16;94822.63;;;9.86;100.00
23164;BME280;31429;42.674;23.350;2023-05-01T04:41:17;94835.19;;;9.92;100.00
23164;BME280;31429;42.674;23.350;2023-05-01T04:42:17;94833.59;;;9.90;100.00
23164;BME280;31429;42.674;23.350;2023-05-01T04:43:18;94835.66;;;10.03;100.00
23164;BME280;31429;42.674;23.350;2023-05-01T04:44:19;94840.38;;;10.15;100.00
23164;BME280;31429;42.674;23.350;2023-05-01T04:45:19;94837.75;;;10.17;100.00
23164;BME280;31429;42.674;23.350;2023-05-01T04:46:20;94838.50;;;10.20;100.00
23164;BME280;31429;42.674;23.350;2023-05-01T04:47:21;94840.31;;;10.17;100.00
23164;BME280;31429;42.674;23.350;2023-05-01T04:48:21;94835.50;;;10.08;100.00
23164;BME280;31429;42.674;23.350;2023-05-01T04:49:22;94835.66;;;10.03;100.00
23164;BME280;31429;42.674;23.350;2023-05-01T04:50:23;94837.88;;;10.14;100.00
23164;BME280;31429;42.674;23.350;2023-05-01T04:51:23;94834.72;;;10.30;100.00
23164;BME280;31429;42.674;23.350;2023-05-01T04:52:24;94850.00;;;10.32;100.00
23164;BME280;31429;42.674;23.350;2023-05-01T04:53:25;94834.38;;;10.41;100.00
23164;BME280;31429;42.674;23.350;2023-05-01T04:54:27;94837.69;;;10.43;100.00
23164;BME280;31429;42.674;23.350;2023-05-01T04:55:27;94846.31;;;10.41;100.00
23164;BME280;31429;42.674;23.350;2023-05-01T04:56:28;94846.84;;;10.49;100.00
23164;BME280;31429;42.674;23.350;2023-05-01T04:57:29;94849.94;;;10.58;100.00
23164;BME280;31429;42.674;23.350;2023-05-01T04:58:29;94848.50;;;10.73;100.00
23164;BME280;31429;42.674;23.350;2023-05-01T04:59:30;94848.66;;;10.70;100.00
23164;BME280;31429;42.674;23.350;2023-05-01T05:00:31;94847.59;;;10.75;100.00
23164;BME280;31429;42.674;23.350;2023-05-01T05:01:31;94849.88;;;10.81;100.00
23164;BME280;31429;42.674;23.350;2023-05-01T05:02:32;94850.81;;;10.80;100.00
23164;BME280;31429;42.674;23.350;2023-05-01T05:03:33;94850.47;;;10.89;100.00
23164;BME280;31429;42.674;23.350;2023-05-01T05:04:33;94853.28;;;10.82;100.00
23164;BME280;31429;42.674;23.350;2023-05-01T05:05:34;94848.97;;;10.84;100.00
23164;BME280;31429;42.674;23.350;2023-05-01T05:06:35;94853.06;;;10.88;100.00
23164;BME280;31429;42.674;23.350;2023-05-01T05:07:35;94855.94;;;11.02;100.00
23164;BME280;31429;42.674;23.350;2023-05-01T05:08:36;94855.41;;;10.94;100.00
23164;BME280;31429;42.674;23.350;2023-05-01T05:09:38;94861.16;;;10.99;100.00
23164;BME280;31429;42.674;23.350;2023-05-01T05:10:39;94864.16;;;11.10;100.00
23164;BME280;31429;42.674;23.350;2023-05-01T05:11:40;94862.84;;;11.22;100.00
23164;BME280;31429;42.674;23.350;2023-05-01T05:12:40;94866.19;;;11.24;100.00
23164;BME280;31429;42.674;23.350;2023-05-01T05:13:41;94865.38;;;11.23;100.00
23164;BME280;31429;42.674;23.350;2023-05-01T05:14:41;94867.13;;;11.21;100.00
23164;BME280;31429;42.674;23.350;2023-05-01T05:15:42;94870.81;;;11.14;100.00
23164;BME280;31429;42.674;23.350;2023-05-01T05:16:43;94874.66;;;11.26;100.00
23164;BME280;31429;42.674;23.350;2023-05-01T05:17:43;94869.94;;;11.37;100.00
23164;BME280;31429;42.674;23.350;2023-05-01T05:18:44;94880.91;;;11.40;100.00
23164;BME280;31429;42.674;23.350;2023-05-01T05:19:45;94884.88;;;11.47;100.00
23164;BME280;31429;42.674;23.350;2023-05-01T05:20:46;94874.63;;;11.47;100.00
23164;BME280;31429;42.674;23.350;2023-05-01T05:21:47;94883.34;;;11.43;100.00
23164;BME280;31429;42.674;23.350;2023-05-01T05:22:47;94882.28;;;11.49;100.00
23164;BME280;31429;42.674;23.350;2023-05-01T05:23:48;94887.44;;;11.47;100.00
23164;BME280;31429;42.674;23.350;2023-05-01T05:24:53;94887.50;;;11.68;100.00
23164;BME280;31429;42.674;23.350;2023-05-01T05:25:55;94887.72;;;11.62;100.00